sensor_id;sensor_type;location;lat;lon;timestamp;P1;P2;P0
40569;PMS5003;26270;34.428;-119.710;2023-03-08T00:01:00;3;2;
40569;PMS5003;26270;34.428;-119.710;2023-03-08T00:03:30;2;2;
40569;PMS5003;26270;34.428;-119.710;2023-03-08T00:05:58;1;1;
40569;PMS5003;26270;34.428;-119.710;2023-03-08T00:08:30;3;3;
40569;PMS5003;26270;34.428;-119.710;2023-03-08T00:10:58;3;2;
40569;PMS5003;26270;34.428;-119.710;2023-03-08T00:13:30;2;2;
40569;PMS5003;26270;34.428;-119.710;2023-03-08T00:15:59;2;1;
40569;PMS5003;26270;34.428;-119.710;2023-03-08T00:18:28;4;4;
40569;PMS5003;26270;34.428;-119.710;2023-03-08T00:20:58;4;3;
40569;PMS5003;26270;34.428;-119.710;2023-03-08T00:23:27;4;3;
40569;PMS5003;26270;34.428;-119.710;2023-03-08T00:25:55;2;2;
40569;PMS5003;26270;34.428;-119.710;2023-03-08T00:28:24;3;2;
40569;PMS5003;26270;34.428;-119.710;2023-03-08T00:30:55;0;0;
40569;PMS5003;26270;34.428;-119.710;2023-03-08T00:33:25;2;1;
40569;PMS5003;26270;34.428;-119.710;2023-03-08T00:35:55;3;0;
40569;PMS5003;26270;34.428;-119.710;2023-03-08T00:38:24;2;1;
40569;PMS5003;26270;34.428;-119.710;2023-03-08T00:40:54;3;2;
40569;PMS5003;26270;34.428;-119.710;2023-03-08T00:43:22;1;0;
40569;PMS5003;26270;34.428;-119.710;2023-03-08T00:45:51;4;1;
40569;PMS5003;26270;34.428;-119.710;2023-03-08T00:48:19;2;2;
40569;PMS5003;26270;34.428;-119.710;2023-03-08T00:50:49;1;1;
40569;PMS5003;26270;34.428;-119.710;2023-03-08T00:53:17;2;1;
40569;PMS5003;26270;34.428;-119.710;2023-03-08T00:55:47;3;1;
40569;PMS5003;26270;34.428;-119.710;2023-03-08T00:58:16;3;2;
40569;PMS5003;26270;34.428;-119.710;2023-03-08T01:00:46;3;1;
40569;PMS5003;26270;34.428;-119.710;2023-03-08T01:03:14;2;1;
40569;PMS5003;26270;34.428;-119.710;2023-03-08T01:05:44;1;0;
40569;PMS5003;26270;34.428;-119.710;2023-03-08T01:08:15;0;0;
40569;PMS5003;26270;34.428;-119.710;2023-03-08T01:10:46;1;1;
40569;PMS5003;26270;34.428;-119.710;2023-03-08T01:13:14;3;1;
40569;PMS5003;26270;34.428;-119.710;2023-03-08T01:15:43;3;2;
40569;PMS5003;26270;34.428;-119.710;2023-03-08T01:18:13;2;2;
40569;PMS5003;26270;34.428;-119.710;2023-03-08T01:20:41;1;1;
40569;PMS5003;26270;34.428;-119.710;2023-03-08T01:23:09;2;0;
40569;PMS5003;26270;34.428;-119.710;2023-03-08T01:25:38;2;1;
40569;PMS5003;26270;34.428;-119.710;2023-03-08T01:28:07;1;0;
40569;PMS5003;26270;34.428;-119.710;2023-03-08T01:30:34;2;2;
40569;PMS5003;26270;34.428;-119.710;2023-03-08T01:33:03;2;0;
40569;PMS5003;26270;34.428;-119.710;2023-03-08T01:35:31;2;1;
40569;PMS5003;26270;34.428;-119.710;2023-03-08T01:38:00;0;0;
40569;PMS5003;26270;34.428;-119.710;2023-03-08T01:40:28;1;0;
40569;PMS5003;26270;34.428;-119.710;2023-03-08T01:42:57;1;0;
40569;PMS5003;26270;34.428;-119.710;2023-03-08T01:46:30;0;0;
40569;PMS5003;26270;34.428;-119.710;2023-03-08T01:49:02;0;0;
40569;PMS5003;26270;34.428;-119.710;2023-03-08T01:51:36;1;1;
40569;PMS5003;26270;34.428;-119.710;2023-03-08T01:54:09;1;0;
40569;PMS5003;26270;34.428;-119.710;2023-03-08T01:56:41;1;1;
40569;PMS5003;26270;34.428;-119.710;2023-03-08T01:59:11;0;0;
40569;PMS5003;26270;34.428;-119.710;2023-03-08T02:01:40;0;0;
40569;PMS5003;26270;34.428;-119.710;2023-03-08T02:04:09;0;0;
40569;PMS5003;26270;34.428;-119.710;2023-03-08T02:06:38;1;0;
40569;PMS5003;26270;34.428;-119.710;2023-03-08T02:09:08;0;0;
40569;PMS5003;26270;34.428;-119.710;2023-03-08T02:11:37;2;2;
40569;PMS5003;26270;34.428;-119.710;2023-03-08T02:14:08;3;3;
40569;PMS5003;26270;34.428;-119.710;2023-03-08T02:16:36;9;8;
40569;PMS5003;26270;34.428;-119.710;2023-03-08T02:19:07;7;7;
40569;PMS5003;26270;34.428;-119.710;2023-03-08T02:21:41;1;1;
40569;PMS5003;26270;34.428;-119.710;2023-03-08T02:24:16;0;0;
40569;PMS5003;26270;34.428;-119.710;2023-03-08T02:26:46;2;0;
40569;PMS5003;26270;34.428;-119.710;2023-03-08T02:29:15;2;0;
40569;PMS5003;26270;34.428;-119.710;2023-03-08T02:31:43;1;0;
40569;PMS5003;26270;34.428;-119.710;2023-03-08T02:34:12;0;0;
40569;PMS5003;26270;34.428;-119.710;2023-03-08T02:36:40;0;0;
40569;PMS5003;26270;34.428;-119.710;2023-03-08T02:39:09;0;0;
40569;PMS5003;26270;34.428;-119.710;2023-03-08T02:41:37;1;1;
40569;PMS5003;26270;34.428;-119.710;2023-03-08T02:44:06;0;0;
40569;PMS5003;26270;34.428;-119.710;2023-03-08T02:46:34;1;1;
40569;PMS5003;26270;34.428;-119.710;2023-03-08T02:49:03;1;0;
40569;PMS5003;26270;34.428;-119.710;2023-03-08T02:51:31;1;1;
40569;PMS5003;26270;34.428;-119.710;2023-03-08T02:54:00;2;2;
40569;PMS5003;26270;34.428;-119.710;2023-03-08T02:56:28;3;1;
40569;PMS5003;26270;34.428;-119.710;2023-03-08T02:58:56;1;1;
40569;PMS5003;26270;34.428;-119.710;2023-03-08T03:01:25;2;2;
40569;PMS5003;26270;34.428;-119.710;2023-03-08T03:03:53;1;1;
40569;PMS5003;26270;34.428;-119.710;2023-03-08T03:06:22;3;2;
40569;PMS5003;26270;34.428;-119.710;2023-03-08T03:08:50;1;1;
40569;PMS5003;26270;34.428;-119.710;2023-03-08T03:11:20;1;1;
40569;PMS5003;26270;34.428;-119.710;2023-03-08T03:13:53;2;2;
40569;PMS5003;26270;34.428;-119.710;2023-03-08T03:16:22;2;2;
40569;PMS5003;26270;34.428;-119.710;2023-03-08T03:18:51;2;2;
40569;PMS5003;26270;34.428;-119.710;2023-03-08T03:21:20;4;3;
40569;PMS5003;26270;34.428;-119.710;2023-03-08T03:23:50;2;2;
40569;PMS5003;26270;34.428;-119.710;2023-03-08T03:26:21;3;3;
40569;PMS5003;26270;34.428;-119.710;2023-03-08T03:28:50;2;1;
40569;PMS5003;26270;34.428;-119.710;2023-03-08T03:31:21;2;2;
40569;PMS5003;26270;34.428;-119.710;2023-03-08T03:33:50;5;4;
40569;PMS5003;26270;34.428;-119.710;2023-03-08T03:36:20;4;4;
40569;PMS5003;26270;34.428;-119.710;2023-03-08T03:38:49;2;2;
40569;PMS5003;26270;34.428;-119.710;2023-03-08T03:41:18;3;3;
40569;PMS5003;26270;34.428;-119.710;2023-03-08T03:43:48;4;4;
40569;PMS5003;26270;34.428;-119.710;2023-03-08T03:46:17;5;3;
40569;PMS5003;26270;34.428;-119.710;2023-03-08T03:48:47;5;5;
40569;PMS5003;26270;34.428;-119.710;2023-03-08T03:51:16;5;5;
40569;PMS5003;26270;34.428;-119.710;2023-03-08T03:53:45;9;9;
40569;PMS5003;26270;34.428;-119.710;2023-03-08T03:56:16;7;7;
40569;PMS5003;26270;34.428;-119.710;2023-03-08T03:58:46;7;7;
40569;PMS5003;26270;34.428;-119.710;2023-03-08T04:01:16;7;7;
40569;PMS5003;26270;34.428;-119.710;2023-03-08T04:03:45;8;7;
40569;PMS5003;26270;34.428;-119.710;2023-03-08T04:06:16;7;6;
40569;PMS5003;26270;34.428;-119.710;2023-03-08T04:08:46;5;5;
40569;PMS5003;26270;34.428;-119.710;2023-03-08T04:11:19;6;5;
40569;PMS5003;26270;34.428;-119.710;2023-03-08T04:13:49;7;5;
40569;PMS5003;26270;34.428;-119.710;2023-03-08T04:16:24;5;5;
40569;PMS5003;26270;34.428;-119.710;2023-03-08T04:18:54;5;4;
40569;PMS5003;26270;34.428;-119.710;2023-03-08T04:21:23;4;4;
40569;PMS5003;26270;34.428;-119.710;2023-03-08T04:23:51;3;3;
40569;PMS5003;26270;34.428;-119.710;2023-03-08T04:26:20;2;2;
40569;PMS5003;26270;34.428;-119.710;2023-03-08T04:28:49;3;2;
40569;PMS5003;26270;34.428;-119.710;2023-03-08T04:31:19;3;3;
40569;PMS5003;26270;34.428;-119.710;2023-03-08T04:33:49;3;3;
40569;PMS5003;26270;34.428;-119.710;2023-03-08T04:36:18;3;3;
40569;PMS5003;26270;34.428;-119.710;2023-03-08T04:38:47;3;3;
40569;PMS5003;26270;34.428;-119.710;2023-03-08T04:41:16;5;3;
40569;PMS5003;26270;34.428;-119.710;2023-03-08T04:43:46;2;2;
40569;PMS5003;26270;34.428;-119.710;2023-03-08T04:46:17;3;2;
40569;PMS5003;26270;34.428;-119.710;2023-03-08T04:48:48;2;2;
40569;PMS5003;26270;34.428;-119.710;2023-03-08T04:51:17;4;2;
40569;PMS5003;26270;34.428;-119.710;2023-03-08T04:53:46;3;2;
40569;PMS5003;26270;34.428;-119.710;2023-03-08T04:56:15;2;2;
40569;PMS5003;26270;34.428;-119.710;2023-03-08T04:58:43;4;3;
40569;PMS5003;26270;34.428;-119.710;2023-03-08T05:03:18;6;3;
40569;PMS5003;26270;34.428;-119.710;2023-03-08T05:05:47;5;4;
40569;PMS5003;26270;34.428;-119.710;2023-03-08T05:08:16;6;5;
40569;PMS5003;26270;34.428;-119.710;2023-03-08T05:10:46;4;4;
40569;PMS5003;26270;34.428;-119.710;2023-03-08T05:13:14;6;5;
40569;PMS5003;26270;34.428;-119.710;2023-03-08T05:15:42;5;5;
40569;PMS5003;26270;34.428;-119.710;2023-03-08T05:18:11;4;4;
40569;PMS5003;26270;34.428;-119.710;2023-03-08T05:20:39;7;6;
40569;PMS5003;26270;34.428;-119.710;2023-03-08T05:23:08;7;5;
40569;PMS5003;26270;34.428;-119.710;2023-03-08T05:25:40;5;4;
40569;PMS5003;26270;34.428;-119.710;2023-03-08T05:28:09;4;3;
40569;PMS5003;26270;34.428;-119.710;2023-03-08T05:30:38;3;3;
40569;PMS5003;26270;34.428;-119.710;2023-03-08T05:33:06;6;4;
40569;PMS5003;26270;34.428;-119.710;2023-03-08T05:35:35;9;6;
40569;PMS5003;26270;34.428;-119.710;2023-03-08T05:38:03;3;3;
40569;PMS5003;26270;34.428;-119.710;2023-03-08T05:40:33;3;3;
40569;PMS5003;26270;34.428;-119.710;2023-03-08T05:43:01;2;2;
40569;PMS5003;26270;34.428;-119.710;2023-03-08T05:45:30;4;3;
40569;PMS5003;26270;34.428;-119.710;2023-03-08T05:47:58;3;3;
40569;PMS5003;26270;34.428;-119.710;2023-03-08T05:50:26;3;3;
40569;PMS5003;26270;34.428;-119.710;2023-03-08T05:52:54;3;3;
40569;PMS5003;26270;34.428;-119.710;2023-03-08T05:55:22;4;4;
40569;PMS5003;26270;34.428;-119.710;2023-03-08T05:57:51;7;4;
40569;PMS5003;26270;34.428;-119.710;2023-03-08T06:00:20;7;6;
40569;PMS5003;26270;34.428;-119.710;2023-03-08T06:02:49;6;6;
40569;PMS5003;26270;34.428;-119.710;2023-03-08T06:05:17;6;6;
40569;PMS5003;26270;34.428;-119.710;2023-03-08T06:07:47;6;6;
40569;PMS5003;26270;34.428;-119.710;2023-03-08T06:10:15;10;10;
40569;PMS5003;26270;34.428;-119.710;2023-03-08T06:12:43;11;8;
40569;PMS5003;26270;34.428;-119.710;2023-03-08T06:15:12;8;7;
40569;PMS5003;26270;34.428;-119.710;2023-03-08T06:17:40;9;9;
40569;PMS5003;26270;34.428;-119.710;2023-03-08T06:20:09;11;10;
40569;PMS5003;26270;34.428;-119.710;2023-03-08T06:22:38;9;8;
40569;PMS5003;26270;34.428;-119.710;2023-03-08T06:25:07;7;6;
40569;PMS5003;26270;34.428;-119.710;2023-03-08T06:27:35;7;6;
40569;PMS5003;26270;34.428;-119.710;2023-03-08T06:30:04;4;4;
40569;PMS5003;26270;34.428;-119.710;2023-03-08T06:32:33;6;5;
40569;PMS5003;26270;34.428;-119.710;2023-03-08T06:35:01;4;4;
40569;PMS5003;26270;34.428;-119.710;2023-03-08T06:37:31;6;6;
40569;PMS5003;26270;34.428;-119.710;2023-03-08T06:40:00;5;4;
40569;PMS5003;26270;34.428;-119.710;2023-03-08T06:42:28;6;5;
40569;PMS5003;26270;34.428;-119.710;2023-03-08T06:44:56;5;4;
40569;PMS5003;26270;34.428;-119.710;2023-03-08T06:47:24;5;5;
40569;PMS5003;26270;34.428;-119.710;2023-03-08T06:49:52;4;4;
40569;PMS5003;26270;34.428;-119.710;2023-03-08T06:52:21;4;3;
40569;PMS5003;26270;34.428;-119.710;2023-03-08T06:54:49;3;3;
40569;PMS5003;26270;34.428;-119.710;2023-03-08T06:57:18;5;5;
40569;PMS5003;26270;34.428;-119.710;2023-03-08T06:59:46;5;5;
40569;PMS5003;26270;34.428;-119.710;2023-03-08T07:02:15;6;4;
40569;PMS5003;26270;34.428;-119.710;2023-03-08T07:04:43;5;4;
40569;PMS5003;26270;34.428;-119.710;2023-03-08T07:07:12;5;5;
40569;PMS5003;26270;34.428;-119.710;2023-03-08T07:09:39;7;7;
40569;PMS5003;26270;34.428;-119.710;2023-03-08T07:12:07;5;4;
40569;PMS5003;26270;34.428;-119.710;2023-03-08T07:14:36;5;5;
40569;PMS5003;26270;34.428;-119.710;2023-03-08T07:17:09;6;5;
40569;PMS5003;26270;34.428;-119.710;2023-03-08T07:19:37;6;5;
40569;PMS5003;26270;34.428;-119.710;2023-03-08T07:22:06;4;4;
40569;PMS5003;26270;34.428;-119.710;2023-03-08T07:24:34;6;6;
40569;PMS5003;26270;34.428;-119.710;2023-03-08T07:27:03;4;4;
40569;PMS5003;26270;34.428;-119.710;2023-03-08T07:29:31;3;3;
40569;PMS5003;26270;34.428;-119.710;2023-03-08T07:32:00;5;4;
40569;PMS5003;26270;34.428;-119.710;2023-03-08T07:34:28;5;5;
40569;PMS5003;26270;34.428;-119.710;2023-03-08T07:36:56;4;4;
40569;PMS5003;26270;34.428;-119.710;2023-03-08T07:39:25;3;3;
40569;PMS5003;26270;34.428;-119.710;2023-03-08T07:41:52;3;3;
40569;PMS5003;26270;34.428;-119.710;2023-03-08T07:44:21;3;3;
40569;PMS5003;26270;34.428;-119.710;2023-03-08T07:46:50;4;4;
40569;PMS5003;26270;34.428;-119.710;2023-03-08T07:49:18;2;2;
40569;PMS5003;26270;34.428;-119.710;2023-03-08T07:51:47;4;4;
40569;PMS5003;26270;34.428;-119.710;2023-03-08T07:54:15;4;3;
40569;PMS5003;26270;34.428;-119.710;2023-03-08T07:56:45;3;3;
40569;PMS5003;26270;34.428;-119.710;2023-03-08T07:59:13;3;2;
40569;PMS5003;26270;34.428;-119.710;2023-03-08T08:01:42;3;2;
40569;PMS5003;26270;34.428;-119.710;2023-03-08T08:04:10;3;3;
40569;PMS5003;26270;34.428;-119.710;2023-03-08T08:06:40;2;2;
40569;PMS5003;26270;34.428;-119.710;2023-03-08T08:09:09;3;3;
40569;PMS5003;26270;34.428;-119.710;2023-03-08T08:11:39;1;1;
40569;PMS5003;26270;34.428;-119.710;2023-03-08T08:14:07;2;2;
40569;PMS5003;26270;34.428;-119.710;2023-03-08T08:16:36;5;4;
40569;PMS5003;26270;34.428;-119.710;2023-03-08T08:19:04;3;2;
40569;PMS5003;26270;34.428;-119.710;2023-03-08T08:21:32;6;3;
40569;PMS5003;26270;34.428;-119.710;2023-03-08T08:24:00;6;4;
40569;PMS5003;26270;34.428;-119.710;2023-03-08T08:26:29;7;4;
40569;PMS5003;26270;34.428;-119.710;2023-03-08T08:28:57;4;3;
40569;PMS5003;26270;34.428;-119.710;2023-03-08T08:31:27;4;3;
40569;PMS5003;26270;34.428;-119.710;2023-03-08T08:33:55;3;3;
40569;PMS5003;26270;34.428;-119.710;2023-03-08T08:36:23;3;3;
40569;PMS5003;26270;34.428;-119.710;2023-03-08T08:38:52;2;2;
40569;PMS5003;26270;34.428;-119.710;2023-03-08T08:41:20;2;2;
40569;PMS5003;26270;34.428;-119.710;2023-03-08T08:43:49;3;3;
40569;PMS5003;26270;34.428;-119.710;2023-03-08T08:46:17;1;1;
40569;PMS5003;26270;34.428;-119.710;2023-03-08T08:48:46;3;2;
40569;PMS5003;26270;34.428;-119.710;2023-03-08T08:51:15;3;3;
40569;PMS5003;26270;34.428;-119.710;2023-03-08T08:53:43;5;4;
40569;PMS5003;26270;34.428;-119.710;2023-03-08T08:56:12;3;3;
40569;PMS5003;26270;34.428;-119.710;2023-03-08T08:58:42;3;3;
40569;PMS5003;26270;34.428;-119.710;2023-03-08T09:01:12;2;2;
40569;PMS5003;26270;34.428;-119.710;2023-03-08T09:03:41;2;2;
40569;PMS5003;26270;34.428;-119.710;2023-03-08T09:06:09;3;3;
40569;PMS5003;26270;34.428;-119.710;2023-03-08T09:08:38;3;3;
40569;PMS5003;26270;34.428;-119.710;2023-03-08T09:11:07;5;4;
40569;PMS5003;26270;34.428;-119.710;2023-03-08T09:13:37;3;3;
40569;PMS5003;26270;34.428;-119.710;2023-03-08T09:16:06;5;4;
40569;PMS5003;26270;34.428;-119.710;2023-03-08T09:18:43;6;4;
40569;PMS5003;26270;34.428;-119.710;2023-03-08T09:21:11;6;5;
40569;PMS5003;26270;34.428;-119.710;2023-03-08T09:23:39;6;6;
40569;PMS5003;26270;34.428;-119.710;2023-03-08T09:26:09;5;4;
40569;PMS5003;26270;34.428;-119.710;2023-03-08T09:28:37;3;3;
40569;PMS5003;26270;34.428;-119.710;2023-03-08T09:31:06;4;3;
40569;PMS5003;26270;34.428;-119.710;2023-03-08T09:33:36;5;5;
40569;PMS5003;26270;34.428;-119.710;2023-03-08T09:36:05;4;4;
40569;PMS5003;26270;34.428;-119.710;2023-03-08T09:38:33;5;5;
40569;PMS5003;26270;34.428;-119.710;2023-03-08T09:41:05;5;5;
40569;PMS5003;26270;34.428;-119.710;2023-03-08T09:43:48;7;6;
40569;PMS5003;26270;34.428;-119.710;2023-03-08T09:46:27;10;8;
40569;PMS5003;26270;34.428;-119.710;2023-03-08T09:49:00;10;10;
40569;PMS5003;26270;34.428;-119.710;2023-03-08T09:51:36;15;13;
40569;PMS5003;26270;34.428;-119.710;2023-03-08T09:54:10;14;14;
40569;PMS5003;26270;34.428;-119.710;2023-03-08T09:56:45;23;23;
40569;PMS5003;26270;34.428;-119.710;2023-03-08T09:59:18;29;29;
40569;PMS5003;26270;34.428;-119.710;2023-03-08T10:01:51;33;33;
40569;PMS5003;26270;34.428;-119.710;2023-03-08T10:04:29;38;38;
40569;PMS5003;26270;34.428;-119.710;2023-03-08T10:07:08;51;51;
40569;PMS5003;26270;34.428;-119.710;2023-03-08T10:09:48;69;68;
40569;PMS5003;26270;34.428;-119.710;2023-03-08T10:12:29;11;10;
40569;PMS5003;26270;34.428;-119.710;2023-03-08T10:15:08;63;62;
40569;PMS5003;26270;34.428;-119.710;2023-03-08T10:17:42;98;97;
40569;PMS5003;26270;34.428;-119.710;2023-03-08T10:20:18;130;130;
40569;PMS5003;26270;34.428;-119.710;2023-03-08T10:22:50;153;152;
40569;PMS5003;26270;34.428;-119.710;2023-03-08T10:25:25;160;160;
40569;PMS5003;26270;34.428;-119.710;2023-03-08T10:27:55;161;161;
40569;PMS5003;26270;34.428;-119.710;2023-03-08T10:30:26;165;163;
40569;PMS5003;26270;34.428;-119.710;2023-03-08T10:32:58;163;163;
40569;PMS5003;26270;34.428;-119.710;2023-03-08T10:35:32;161;161;
40569;PMS5003;26270;34.428;-119.710;2023-03-08T10:38:02;154;154;
40569;PMS5003;26270;34.428;-119.710;2023-03-08T10:40:40;139;139;
40569;PMS5003;26270;34.428;-119.710;2023-03-08T10:43:14;67;65;
40569;PMS5003;26270;34.428;-119.710;2023-03-08T10:45:56;106;106;
40569;PMS5003;26270;34.428;-119.710;2023-03-08T10:48:28;186;185;
40569;PMS5003;26270;34.428;-119.710;2023-03-08T10:50:57;57;57;
40569;PMS5003;26270;34.428;-119.710;2023-03-08T10:53:28;4;2;
40569;PMS5003;26270;34.428;-119.710;2023-03-08T10:55:58;2;2;
40569;PMS5003;26270;34.428;-119.710;2023-03-08T10:58:29;2;2;
40569;PMS5003;26270;34.428;-119.710;2023-03-08T11:01:00;2;2;
40569;PMS5003;26270;34.428;-119.710;2023-03-08T11:03:31;2;2;
40569;PMS5003;26270;34.428;-119.710;2023-03-08T11:06:00;2;2;
40569;PMS5003;26270;34.428;-119.710;2023-03-08T11:08:40;3;3;
40569;PMS5003;26270;34.428;-119.710;2023-03-08T11:11:19;2;2;
40569;PMS5003;26270;34.428;-119.710;2023-03-08T11:13:48;2;2;
40569;PMS5003;26270;34.428;-119.710;2023-03-08T11:16:21;2;2;
40569;PMS5003;26270;34.428;-119.710;2023-03-08T11:19:01;1;1;
40569;PMS5003;26270;34.428;-119.710;2023-03-08T11:21:41;1;1;
40569;PMS5003;26270;34.428;-119.710;2023-03-08T11:24:22;2;1;
40569;PMS5003;26270;34.428;-119.710;2023-03-08T11:27:05;1;1;
40569;PMS5003;26270;34.428;-119.710;2023-03-08T11:29:49;1;0;
40569;PMS5003;26270;34.428;-119.710;2023-03-08T11:32:34;0;0;
40569;PMS5003;26270;34.428;-119.710;2023-03-08T11:35:16;0;0;
40569;PMS5003;26270;34.428;-119.710;2023-03-08T11:37:52;3;0;
40569;PMS5003;26270;34.428;-119.710;2023-03-08T11:40:27;1;1;
40569;PMS5003;26270;34.428;-119.710;2023-03-08T11:43:06;0;0;
40569;PMS5003;26270;34.428;-119.710;2023-03-08T11:45:45;1;1;
40569;PMS5003;26270;34.428;-119.710;2023-03-08T11:48:24;1;1;
40569;PMS5003;26270;34.428;-119.710;2023-03-08T11:51:07;2;0;
40569;PMS5003;26270;34.428;-119.710;2023-03-08T11:53:45;0;0;
40569;PMS5003;26270;34.428;-119.710;2023-03-08T11:56:36;1;1;
40569;PMS5003;26270;34.428;-119.710;2023-03-08T11:59:14;1;1;
40569;PMS5003;26270;34.428;-119.710;2023-03-08T12:01:49;0;0;
40569;PMS5003;26270;34.428;-119.710;2023-03-08T12:04:24;1;1;
40569;PMS5003;26270;34.428;-119.710;2023-03-08T12:07:00;1;1;
40569;PMS5003;26270;34.428;-119.710;2023-03-08T12:09:33;2;1;
40569;PMS5003;26270;34.428;-119.710;2023-03-08T12:12:09;3;2;
40569;PMS5003;26270;34.428;-119.710;2023-03-08T12:14:45;0;0;
40569;PMS5003;26270;34.428;-119.710;2023-03-08T12:17:23;1;0;
40569;PMS5003;26270;34.428;-119.710;2023-03-08T12:19:54;1;1;
40569;PMS5003;26270;34.428;-119.710;2023-03-08T12:22:25;1;1;
40569;PMS5003;26270;34.428;-119.710;2023-03-08T12:25:04;1;1;
40569;PMS5003;26270;34.428;-119.710;2023-03-08T12:27:40;0;0;
40569;PMS5003;26270;34.428;-119.710;2023-03-08T12:30:18;1;1;
40569;PMS5003;26270;34.428;-119.710;2023-03-08T12:32:54;1;1;
40569;PMS5003;26270;34.428;-119.710;2023-03-08T12:35:25;0;0;
40569;PMS5003;26270;34.428;-119.710;2023-03-08T12:37:57;0;0;
40569;PMS5003;26270;34.428;-119.710;2023-03-08T12:40:34;1;0;
40569;PMS5003;26270;34.428;-119.710;2023-03-08T12:43:06;1;1;
40569;PMS5003;26270;34.428;-119.710;2023-03-08T12:45:37;0;0;
40569;PMS5003;26270;34.428;-119.710;2023-03-08T12:48:13;0;0;
40569;PMS5003;26270;34.428;-119.710;2023-03-08T12:50:54;2;1;
40569;PMS5003;26270;34.428;-119.710;2023-03-08T12:53:29;1;1;
40569;PMS5003;26270;34.428;-119.710;2023-03-08T12:56:02;0;0;
40569;PMS5003;26270;34.428;-119.710;2023-03-08T12:58:46;0;0;
40569;PMS5003;26270;34.428;-119.710;2023-03-08T13:01:26;1;1;
40569;PMS5003;26270;34.428;-119.710;2023-03-08T13:03:57;1;1;
40569;PMS5003;26270;34.428;-119.710;2023-03-08T13:06:31;1;1;
40569;PMS5003;26270;34.428;-119.710;2023-03-08T13:09:21;1;1;
40569;PMS5003;26270;34.428;-119.710;2023-03-08T13:11:56;1;1;
40569;PMS5003;26270;34.428;-119.710;2023-03-08T13:14:37;1;1;
40569;PMS5003;26270;34.428;-119.710;2023-03-08T13:17:40;0;0;
40569;PMS5003;26270;34.428;-119.710;2023-03-08T13:20:16;0;0;
40569;PMS5003;26270;34.428;-119.710;2023-03-08T13:22:55;2;0;
40569;PMS5003;26270;34.428;-119.710;2023-03-08T13:25:40;0;0;
40569;PMS5003;26270;34.428;-119.710;2023-03-08T13:28:19;3;3;
40569;PMS5003;26270;34.428;-119.710;2023-03-08T13:30:50;1;1;
40569;PMS5003;26270;34.428;-119.710;2023-03-08T13:33:20;0;0;
40569;PMS5003;26270;34.428;-119.710;2023-03-08T13:35:55;0;0;
40569;PMS5003;26270;34.428;-119.710;2023-03-08T13:38:26;0;0;
40569;PMS5003;26270;34.428;-119.710;2023-03-08T13:40:56;0;0;
40569;PMS5003;26270;34.428;-119.710;2023-03-08T13:43:25;0;0;
40569;PMS5003;26270;34.428;-119.710;2023-03-08T13:45:56;2;1;
40569;PMS5003;26270;34.428;-119.710;2023-03-08T13:48:29;0;0;
40569;PMS5003;26270;34.428;-119.710;2023-03-08T13:50:58;0;0;
40569;PMS5003;26270;34.428;-119.710;2023-03-08T13:53:29;0;0;
40569;PMS5003;26270;34.428;-119.710;2023-03-08T13:56:00;1;0;
40569;PMS5003;26270;34.428;-119.710;2023-03-08T13:58:31;1;1;
40569;PMS5003;26270;34.428;-119.710;2023-03-08T14:01:08;1;1;
40569;PMS5003;26270;34.428;-119.710;2023-03-08T14:03:39;0;0;
40569;PMS5003;26270;34.428;-119.710;2023-03-08T14:06:14;1;1;
40569;PMS5003;26270;34.428;-119.710;2023-03-08T14:08:45;0;0;
40569;PMS5003;26270;34.428;-119.710;2023-03-08T14:11:14;1;0;
40569;PMS5003;26270;34.428;-119.710;2023-03-08T14:13:45;0;0;
40569;PMS5003;26270;34.428;-119.710;2023-03-08T14:16:24;1;1;
40569;PMS5003;26270;34.428;-119.710;2023-03-08T14:18:55;1;1;
40569;PMS5003;26270;34.428;-119.710;2023-03-08T14:21:25;1;0;
40569;PMS5003;26270;34.428;-119.710;2023-03-08T14:23:55;0;0;
40569;PMS5003;26270;34.428;-119.710;2023-03-08T14:26:27;2;0;
40569;PMS5003;26270;34.428;-119.710;2023-03-08T14:29:16;3;1;
40569;PMS5003;26270;34.428;-119.710;2023-03-08T14:31:53;1;0;
40569;PMS5003;26270;34.428;-119.710;2023-03-08T14:34:27;0;0;
40569;PMS5003;26270;34.428;-119.710;2023-03-08T14:36:57;1;1;
40569;PMS5003;26270;34.428;-119.710;2023-03-08T14:39:27;1;0;
40569;PMS5003;26270;34.428;-119.710;2023-03-08T14:41:57;2;1;
40569;PMS5003;26270;34.428;-119.710;2023-03-08T14:44:35;1;1;
40569;PMS5003;26270;34.428;-119.710;2023-03-08T14:47:08;1;0;
40569;PMS5003;26270;34.428;-119.710;2023-03-08T14:49:53;3;1;
40569;PMS5003;26270;34.428;-119.710;2023-03-08T14:52:23;1;1;
40569;PMS5003;26270;34.428;-119.710;2023-03-08T14:54:54;1;1;
40569;PMS5003;26270;34.428;-119.710;2023-03-08T14:57:23;3;2;
40569;PMS5003;26270;34.428;-119.710;2023-03-08T14:59:53;2;2;
40569;PMS5003;26270;34.428;-119.710;2023-03-08T15:02:29;1;1;
40569;PMS5003;26270;34.428;-119.710;2023-03-08T15:04:58;1;1;
40569;PMS5003;26270;34.428;-119.710;2023-03-08T15:07:26;1;1;
40569;PMS5003;26270;34.428;-119.710;2023-03-08T15:09:58;1;1;
40569;PMS5003;26270;34.428;-119.710;2023-03-08T15:12:29;1;1;
40569;PMS5003;26270;34.428;-119.710;2023-03-08T15:14:58;3;1;
40569;PMS5003;26270;34.428;-119.710;2023-03-08T15:17:26;0;0;
40569;PMS5003;26270;34.428;-119.710;2023-03-08T15:19:54;1;1;
40569;PMS5003;26270;34.428;-119.710;2023-03-08T15:22:22;1;1;
40569;PMS5003;26270;34.428;-119.710;2023-03-08T15:24:51;1;1;
40569;PMS5003;26270;34.428;-119.710;2023-03-08T15:27:19;3;3;
40569;PMS5003;26270;34.428;-119.710;2023-03-08T15:29:48;32;32;
40569;PMS5003;26270;34.428;-119.710;2023-03-08T15:32:16;37;37;
40569;PMS5003;26270;34.428;-119.710;2023-03-08T15:34:44;46;44;
40569;PMS5003;26270;34.428;-119.710;2023-03-08T15:37:13;67;67;
40569;PMS5003;26270;34.428;-119.710;2023-03-08T15:39:41;55;53;
40569;PMS5003;26270;34.428;-119.710;2023-03-08T15:42:09;36;33;
40569;PMS5003;26270;34.428;-119.710;2023-03-08T15:44:36;13;13;
40569;PMS5003;26270;34.428;-119.710;2023-03-08T15:47:04;8;7;
40569;PMS5003;26270;34.428;-119.710;2023-03-08T15:49:34;1;1;
40569;PMS5003;26270;34.428;-119.710;2023-03-08T15:52:02;0;0;
40569;PMS5003;26270;34.428;-119.710;2023-03-08T15:54:31;2;1;
40569;PMS5003;26270;34.428;-119.710;2023-03-08T15:56:59;1;1;
40569;PMS5003;26270;34.428;-119.710;2023-03-08T15:59:27;4;1;
40569;PMS5003;26270;34.428;-119.710;2023-03-08T16:01:55;2;2;
40569;PMS5003;26270;34.428;-119.710;2023-03-08T16:04:22;3;3;
40569;PMS5003;26270;34.428;-119.710;2023-03-08T16:06:50;4;4;
40569;PMS5003;26270;34.428;-119.710;2023-03-08T16:09:19;3;3;
40569;PMS5003;26270;34.428;-119.710;2023-03-08T16:11:47;4;3;
40569;PMS5003;26270;34.428;-119.710;2023-03-08T16:14:16;3;2;
40569;PMS5003;26270;34.428;-119.710;2023-03-08T16:16:44;1;1;
40569;PMS5003;26270;34.428;-119.710;2023-03-08T16:19:12;2;2;
40569;PMS5003;26270;34.428;-119.710;2023-03-08T16:21:41;1;1;
40569;PMS5003;26270;34.428;-119.710;2023-03-08T16:24:09;4;2;